sensor_id;sensor_type;location;lat;lon;timestamp;temperature;humidity
16966;DHT22;8599;47.852;12.070;2024-01-16T00:00:55;-0.80;99.90
16966;DHT22;8599;47.852;12.070;2024-01-16T00:03:22;-0.70;99.90
16966;DHT22;8599;47.852;12.070;2024-01-16T00:05:49;-0.70;99.90
16966;DHT22;8599;47.852;12.070;2024-01-16T00:08:17;-0.70;99.90
16966;DHT22;8599;47.852;12.070;2024-01-16T00:10:44;-0.70;99.90
16966;DHT22;8599;47.852;12.070;2024-01-16T00:13:11;-0.60;99.90
16966;DHT22;8599;47.852;12.070;2024-01-16T00:15:38;-0.50;99.90
16966;DHT22;8599;47.852;12.070;2024-01-16T00:18:07;-0.40;99.90
16966;DHT22;8599;47.852;12.070;2024-01-16T00:20:34;-0.40;99.90
16966;DHT22;8599;47.852;12.070;2024-01-16T00:23:01;-0.50;99.90
16966;DHT22;8599;47.852;12.070;2024-01-16T00:25:29;-0.50;99.90
16966;DHT22;8599;47.852;12.070;2024-01-16T00:27:56;-0.60;99.90
16966;DHT22;8599;47.852;12.070;2024-01-16T00:30:23;-0.60;99.90
16966;DHT22;8599;47.852;12.070;2024-01-16T00:32:50;-0.60;99.90
16966;DHT22;8599;47.852;12.070;2024-01-16T00:35:17;-0.70;99.90
16966;DHT22;8599;47.852;12.070;2024-01-16T00:37:44;-0.60;99.90
16966;DHT22;8599;47.852;12.070;2024-01-16T00:40:11;-0.60;99.90
16966;DHT22;8599;47.852;12.070;2024-01-16T00:42:40;-0.70;99.90
16966;DHT22;8599;47.852;12.070;2024-01-16T00:45:07;-0.80;99.90
16966;DHT22;8599;47.852;12.070;2024-01-16T00:47:34;-0.80;99.90
16966;DHT22;8599;47.852;12.070;2024-01-16T00:50:00;-0.90;99.90
16966;DHT22;8599;47.852;12.070;2024-01-16T00:52:28;-0.90;99.90
16966;DHT22;8599;47.852;12.070;2024-01-16T00:54:55;-0.90;99.90
16966;DHT22;8599;47.852;12.070;2024-01-16T00:57:21;-0.90;99.90
16966;DHT22;8599;47.852;12.070;2024-01-16T00:59:50;-0.90;99.90
16966;DHT22;8599;47.852;12.070;2024-01-16T01:02:17;-1.00;99.90
16966;DHT22;8599;47.852;12.070;2024-01-16T01:04:44;-1.00;99.90
16966;DHT22;8599;47.852;12.070;2024-01-16T01:07:13;-1.00;99.90
16966;DHT22;8599;47.852;12.070;2024-01-16T01:09:40;-1.00;99.90
16966;DHT22;8599;47.852;12.070;2024-01-16T01:12:07;-1.00;99.90
16966;DHT22;8599;47.852;12.070;2024-01-16T01:14:35;-0.70;99.90
16966;DHT22;8599;47.852;12.070;2024-01-16T01:17:03;-0.70;99.90
16966;DHT22;8599;47.852;12.070;2024-01-16T01:19:31;-0.60;99.90
16966;DHT22;8599;47.852;12.070;2024-01-16T01:21:57;-0.70;99.90
16966;DHT22;8599;47.852;12.070;2024-01-16T01:24:24;-0.80;99.90
16966;DHT22;8599;47.852;12.070;2024-01-16T01:26:51;-0.70;99.90
16966;DHT22;8599;47.852;12.070;2024-01-16T01:29:18;-0.60;99.90
16966;DHT22;8599;47.852;12.070;2024-01-16T01:31:45;-0.60;99.90
16966;DHT22;8599;47.852;12.070;2024-01-16T01:34:14;-0.60;99.90
16966;DHT22;8599;47.852;12.070;2024-01-16T01:36:41;-0.60;99.90
16966;DHT22;8599;47.852;12.070;2024-01-16T01:39:09;-0.80;99.90
16966;DHT22;8599;47.852;12.070;2024-01-16T01:41:37;-0.60;99.90
16966;DHT22;8599;47.852;12.070;2024-01-16T01:44:04;-0.70;99.90
16966;DHT22;8599;47.852;12.070;2024-01-16T01:46:32;-0.70;99.90
16966;DHT22;8599;47.852;12.070;2024-01-16T01:49:00;-0.60;99.90
16966;DHT22;8599;47.852;12.070;2024-01-16T01:51:28;-0.60;99.90
16966;DHT22;8599;47.852;12.070;2024-01-16T01:53:55;-0.80;99.90
16966;DHT22;8599;47.852;12.070;2024-01-16T01:56:24;-0.90;99.90
16966;DHT22;8599;47.852;12.070;2024-01-16T01:58:54;-1.00;99.90
16966;DHT22;8599;47.852;12.070;2024-01-16T02:01:25;-1.10;99.90
16966;DHT22;8599;47.852;12.070;2024-01-16T02:03:55;-1.10;99.90
16966;DHT22;8599;47.852;12.070;2024-01-16T02:06:22;-1.10;99.90
16966;DHT22;8599;47.852;12.070;2024-01-16T02:08:51;-1.10;99.90
16966;DHT22;8599;47.852;12.070;2024-01-16T02:11:18;-1.20;99.90
16966;DHT22;8599;47.852;12.070;2024-01-16T02:13:45;-1.20;99.90
16966;DHT22;8599;47.852;12.070;2024-01-16T02:16:18;-1.20;99.90
16966;DHT22;8599;47.852;12.070;2024-01-16T02:18:46;-1.20;99.90
16966;DHT22;8599;47.852;12.070;2024-01-16T02:21:15;-1.20;99.90
16966;DHT22;8599;47.852;12.070;2024-01-16T02:23:45;-1.20;99.90
16966;DHT22;8599;47.852;12.070;2024-01-16T02:26:13;-1.30;99.90
16966;DHT22;8599;47.852;12.070;2024-01-16T02:28:40;-1.30;99.90
16966;DHT22;8599;47.852;12.070;2024-01-16T02:31:07;-1.30;99.90
16966;DHT22;8599;47.852;12.070;2024-01-16T02:33:34;-1.20;99.90
16966;DHT22;8599;47.852;12.070;2024-01-16T02:36:01;-1.20;99.90
16966;DHT22;8599;47.852;12.070;2024-01-16T02:38:28;-1.30;99.90
16966;DHT22;8599;47.852;12.070;2024-01-16T02:40:56;-1.30;99.90
16966;DHT22;8599;47.852;12.070;2024-01-16T02:43:22;-1.40;99.90
16966;DHT22;8599;47.852;12.070;2024-01-16T02:45:52;-1.40;99.90
16966;DHT22;8599;47.852;12.070;2024-01-16T02:48:18;-1.40;99.90
16966;DHT22;8599;47.852;12.070;2024-01-16T02:50:46;-1.30;99.90
16966;DHT22;8599;47.852;12.070;2024-01-16T02:53:13;-1.40;99.90
16966;DHT22;8599;47.852;12.070;2024-01-16T02:55:40;-1.40;99.90
16966;DHT22;8599;47.852;12.070;2024-01-16T02:58:08;-1.40;99.90
16966;DHT22;8599;47.852;12.070;2024-01-16T03:00:35;-1.50;99.90
16966;DHT22;8599;47.852;12.070;2024-01-16T03:03:03;-1.40;99.90
16966;DHT22;8599;47.852;12.070;2024-01-16T03:05:30;-1.40;99.90
16966;DHT22;8599;47.852;12.070;2024-01-16T03:07:57;-1.30;99.90
16966;DHT22;8599;47.852;12.070;2024-01-16T03:10:23;-1.20;99.90
16966;DHT22;8599;47.852;12.070;2024-01-16T03:12:50;-1.40;99.90
16966;DHT22;8599;47.852;12.070;2024-01-16T03:15:18;-1.20;99.90
16966;DHT22;8599;47.852;12.070;2024-01-16T03:17:45;-1.40;99.90
16966;DHT22;8599;47.852;12.070;2024-01-16T03:20:12;-1.50;99.90
16966;DHT22;8599;47.852;12.070;2024-01-16T03:22:39;-1.50;99.90
16966;DHT22;8599;47.852;12.070;2024-01-16T03:25:08;-1.50;99.90
16966;DHT22;8599;47.852;12.070;2024-01-16T03:27:36;-1.60;99.90
16966;DHT22;8599;47.852;12.070;2024-01-16T03:30:04;-1.60;99.90
16966;DHT22;8599;47.852;12.070;2024-01-16T03:32:33;-1.70;99.90
16966;DHT22;8599;47.852;12.070;2024-01-16T03:35:00;-1.80;99.90
16966;DHT22;8599;47.852;12.070;2024-01-16T03:37:26;-1.80;99.90
16966;DHT22;8599;47.852;12.070;2024-01-16T03:39:53;-1.80;99.90
16966;DHT22;8599;47.852;12.070;2024-01-16T03:42:22;-1.90;99.90
16966;DHT22;8599;47.852;12.070;2024-01-16T03:44:49;-2.00;99.90
16966;DHT22;8599;47.852;12.070;2024-01-16T03:47:17;-2.00;99.90
16966;DHT22;8599;47.852;12.070;2024-01-16T03:49:45;-2.00;99.90
16966;DHT22;8599;47.852;12.070;2024-01-16T03:52:12;-2.10;99.90
16966;DHT22;8599;47.852;12.070;2024-01-16T03:54:38;-2.10;99.90
16966;DHT22;8599;47.852;12.070;2024-01-16T03:57:05;-2.20;99.90
16966;DHT22;8599;47.852;12.070;2024-01-16T03:59:32;-2.20;99.90
16966;DHT22;8599;47.852;12.070;2024-01-16T04:02:00;-2.10;99.90
16966;DHT22;8599;47.852;12.070;2024-01-16T04:04:28;-2.20;99.90
16966;DHT22;8599;47.852;12.070;2024-01-16T04:06:56;-2.20;99.90
16966;DHT22;8599;47.852;12.070;2024-01-16T04:09:23;-2.20;99.90
16966;DHT22;8599;47.852;12.070;2024-01-16T04:11:50;-2.20;99.90
16966;DHT22;8599;47.852;12.070;2024-01-16T04:14:17;-2.30;99.90
16966;DHT22;8599;47.852;12.070;2024-01-16T04:16:44;-2.20;99.90
16966;DHT22;8599;47.852;12.070;2024-01-16T04:19:11;-2.30;99.90
16966;DHT22;8599;47.852;12.070;2024-01-16T04:21:38;-2.30;99.90
16966;DHT22;8599;47.852;12.070;2024-01-16T04:24:06;-2.30;99.90
16966;DHT22;8599;47.852;12.070;2024-01-16T04:26:35;-2.30;99.90
16966;DHT22;8599;47.852;12.070;2024-01-16T04:29:02;-2.30;99.90
16966;DHT22;8599;47.852;12.070;2024-01-16T04:31:29;-2.40;99.90
16966;DHT22;8599;47.852;12.070;2024-01-16T04:33:56;-2.40;99.90
16966;DHT22;8599;47.852;12.070;2024-01-16T04:36:23;-2.40;99.90
16966;DHT22;8599;47.852;12.070;2024-01-16T04:38:50;-2.40;99.90
16966;DHT22;8599;47.852;12.070;2024-01-16T04:41:19;-2.40;99.90
16966;DHT22;8599;47.852;12.070;2024-01-16T04:43:46;-2.50;99.90
16966;DHT22;8599;47.852;12.070;2024-01-16T04:46:14;-2.60;99.90
16966;DHT22;8599;47.852;12.070;2024-01-16T04:48:41;-2.70;99.90
16966;DHT22;8599;47.852;12.070;2024-01-16T04:51:08;-2.70;99.90
16966;DHT22;8599;47.852;12.070;2024-01-16T04:53:35;-2.70;99.90
16966;DHT22;8599;47.852;12.070;2024-01-16T04:56:02;-2.70;99.90
16966;DHT22;8599;47.852;12.070;2024-01-16T04:58:30;-2.70;99.90
16966;DHT22;8599;47.852;12.070;2024-01-16T05:00:57;-2.90;99.90
16966;DHT22;8599;47.852;12.070;2024-01-16T05:03:24;-3.00;99.90
16966;DHT22;8599;47.852;12.070;2024-01-16T05:05:51;-2.90;99.90
16966;DHT22;8599;47.852;12.070;2024-01-16T05:08:18;-3.00;99.90
16966;DHT22;8599;47.852;12.070;2024-01-16T05:10:44;-3.10;99.90
16966;DHT22;8599;47.852;12.070;2024-01-16T05:13:11;-3.10;99.90
16966;DHT22;8599;47.852;12.070;2024-01-16T05:15:40;-3.10;99.90
16966;DHT22;8599;47.852;12.070;2024-01-16T05:18:07;-3.10;99.90
16966;DHT22;8599;47.852;12.070;2024-01-16T05:20:35;-3.20;99.90
16966;DHT22;8599;47.852;12.070;2024-01-16T05:23:02;-3.10;99.90
16966;DHT22;8599;47.852;12.070;2024-01-16T05:25:28;-3.10;99.90
16966;DHT22;8599;47.852;12.070;2024-01-16T05:27:55;-3.20;99.90
16966;DHT22;8599;47.852;12.070;2024-01-16T05:30:22;-3.10;99.90
16966;DHT22;8599;47.852;12.070;2024-01-16T05:32:50;-3.10;99.90
16966;DHT22;8599;47.852;12.070;2024-01-16T05:35:18;-3.20;99.90
16966;DHT22;8599;47.852;12.070;2024-01-16T05:37:45;-3.20;99.90
16966;DHT22;8599;47.852;12.070;2024-01-16T05:40:12;-3.20;99.90
16966;DHT22;8599;47.852;12.070;2024-01-16T05:42:38;-3.20;99.90
16966;DHT22;8599;47.852;12.070;2024-01-16T05:45:06;-3.30;99.90
16966;DHT22;8599;47.852;12.070;2024-01-16T05:47:33;-3.30;99.90
16966;DHT22;8599;47.852;12.070;2024-01-16T05:50:01;-3.30;99.90
16966;DHT22;8599;47.852;12.070;2024-01-16T05:52:28;-3.30;99.90
16966;DHT22;8599;47.852;12.070;2024-01-16T05:54:55;-3.30;99.90
16966;DHT22;8599;47.852;12.070;2024-01-16T05:57:23;-3.30;99.90
16966;DHT22;8599;47.852;12.070;2024-01-16T05:59:50;-3.40;99.90
16966;DHT22;8599;47.852;12.070;2024-01-16T06:02:17;-3.40;99.90
16966;DHT22;8599;47.852;12.070;2024-01-16T06:04:44;-3.40;99.90
16966;DHT22;8599;47.852;12.070;2024-01-16T06:07:13;-3.40;99.90
16966;DHT22;8599;47.852;12.070;2024-01-16T06:09:39;-3.30;99.90
16966;DHT22;8599;47.852;12.070;2024-01-16T06:12:07;-3.40;99.90
16966;DHT22;8599;47.852;12.070;2024-01-16T06:14:34;-3.40;99.90
16966;DHT22;8599;47.852;12.070;2024-01-16T06:17:01;-3.40;99.90
16966;DHT22;8599;47.852;12.070;2024-01-16T06:19:28;-3.40;99.90
16966;DHT22;8599;47.852;12.070;2024-01-16T06:21:55;-3.50;99.90
16966;DHT22;8599;47.852;12.070;2024-01-16T06:24:23;-3.50;99.90
16966;DHT22;8599;47.852;12.070;2024-01-16T06:26:50;-3.50;99.90
16966;DHT22;8599;47.852;12.070;2024-01-16T06:29:17;-3.50;99.90
16966;DHT22;8599;47.852;12.070;2024-01-16T06:31:44;-3.50;99.90
16966;DHT22;8599;47.852;12.070;2024-01-16T06:34:11;-3.40;99.90
16966;DHT22;8599;47.852;12.070;2024-01-16T06:36:38;-3.40;99.90
16966;DHT22;8599;47.852;12.070;2024-01-16T06:39:04;-3.40;99.90
16966;DHT22;8599;47.852;12.070;2024-01-16T06:41:33;-3.40;99.90
16966;DHT22;8599;47.852;12.070;2024-01-16T06:44:00;-3.40;99.90
16966;DHT22;8599;47.852;12.070;2024-01-16T06:46:27;-3.40;99.90
16966;DHT22;8599;47.852;12.070;2024-01-16T06:48:54;-3.40;99.90
16966;DHT22;8599;47.852;12.070;2024-01-16T06:51:21;-3.40;99.90
16966;DHT22;8599;47.852;12.070;2024-01-16T06:53:48;-3.40;99.90
16966;DHT22;8599;47.852;12.070;2024-01-16T06:56:15;-3.40;99.90
16966;DHT22;8599;47.852;12.070;2024-01-16T06:58:43;-3.40;99.90
16966;DHT22;8599;47.852;12.070;2024-01-16T07:01:10;-3.40;99.90
16966;DHT22;8599;47.852;12.070;2024-01-16T07:03:37;-3.40;99.90
16966;DHT22;8599;47.852;12.070;2024-01-16T07:06:04;-3.40;99.90
16966;DHT22;8599;47.852;12.070;2024-01-16T07:08:31;-3.50;99.90
16966;DHT22;8599;47.852;12.070;2024-01-16T07:10:58;-3.40;99.90
16966;DHT22;8599;47.852;12.070;2024-01-16T07:13:25;-3.60;99.90
16966;DHT22;8599;47.852;12.070;2024-01-16T07:15:53;-3.60;99.90
16966;DHT22;8599;47.852;12.070;2024-01-16T07:18:20;-3.60;99.90
16966;DHT22;8599;47.852;12.070;2024-01-16T07:20:47;-3.50;99.90
16966;DHT22;8599;47.852;12.070;2024-01-16T07:23:14;-3.70;99.90
16966;DHT22;8599;47.852;12.070;2024-01-16T07:25:40;-3.60;99.90
16966;DHT22;8599;47.852;12.070;2024-01-16T07:28:07;-3.70;99.90
16966;DHT22;8599;47.852;12.070;2024-01-16T07:30:34;-3.60;99.90
16966;DHT22;8599;47.852;12.070;2024-01-16T07:33:04;-3.70;99.90
16966;DHT22;8599;47.852;12.070;2024-01-16T07:35:31;-3.60;99.90
16966;DHT22;8599;47.852;12.070;2024-01-16T07:37:57;-3.70;99.90
16966;DHT22;8599;47.852;12.070;2024-01-16T07:40:24;-3.80;99.90
16966;DHT22;8599;47.852;12.070;2024-01-16T07:42:51;-3.80;99.90
16966;DHT22;8599;47.852;12.070;2024-01-16T07:45:18;-3.80;99.90
16966;DHT22;8599;47.852;12.070;2024-01-16T07:47:45;-3.80;99.90
16966;DHT22;8599;47.852;12.070;2024-01-16T07:50:13;-3.70;99.90
16966;DHT22;8599;47.852;12.070;2024-01-16T07:52:40;-3.70;99.90
16966;DHT22;8599;47.852;12.070;2024-01-16T07:55:07;-3.60;99.90
16966;DHT22;8599;47.852;12.070;2024-01-16T07:57:34;-3.40;99.90
16966;DHT22;8599;47.852;12.070;2024-01-16T08:00:00;-3.20;99.90
16966;DHT22;8599;47.852;12.070;2024-01-16T08:02:32;-3.20;99.90
16966;DHT22;8599;47.852;12.070;2024-01-16T08:04:59;-3.00;99.90
16966;DHT22;8599;47.852;12.070;2024-01-16T08:07:28;-2.80;99.90
16966;DHT22;8599;47.852;12.070;2024-01-16T08:09:55;-2.70;99.90
16966;DHT22;8599;47.852;12.070;2024-01-16T08:12:22;-2.50;99.90
16966;DHT22;8599;47.852;12.070;2024-01-16T08:14:49;-2.30;99.90
16966;DHT22;8599;47.852;12.070;2024-01-16T08:17:15;-2.10;99.90
16966;DHT22;8599;47.852;12.070;2024-01-16T08:19:43;-2.00;99.90
16966;DHT22;8599;47.852;12.070;2024-01-16T08:22:10;-1.90;99.90
16966;DHT22;8599;47.852;12.070;2024-01-16T08:24:38;-1.80;99.90
16966;DHT22;8599;47.852;12.070;2024-01-16T08:27:05;-1.70;99.90
16966;DHT22;8599;47.852;12.070;2024-01-16T08:29:32;-1.60;99.90
16966;DHT22;8599;47.852;12.070;2024-01-16T08:31:59;-1.50;99.90
16966;DHT22;8599;47.852;12.070;2024-01-16T08:34:26;-1.50;99.90
16966;DHT22;8599;47.852;12.070;2024-01-16T08:36:52;-1.40;99.90
16966;DHT22;8599;47.852;12.070;2024-01-16T08:39:22;-1.40;99.90
16966;DHT22;8599;47.852;12.070;2024-01-16T08:41:51;-1.30;99.90
16966;DHT22;8599;47.852;12.070;2024-01-16T08:44:18;-1.30;99.90
16966;DHT22;8599;47.852;12.070;2024-01-16T08:46:45;-1.20;99.90
16966;DHT22;8599;47.852;12.070;2024-01-16T08:49:12;-1.20;99.90
16966;DHT22;8599;47.852;12.070;2024-01-16T08:51:40;-1.10;99.90
16966;DHT22;8599;47.852;12.070;2024-01-16T08:54:07;-1.00;99.90
16966;DHT22;8599;47.852;12.070;2024-01-16T08:56:34;-0.90;99.90
16966;DHT22;8599;47.852;12.070;2024-01-16T08:59:02;-0.80;99.90
16966;DHT22;8599;47.852;12.070;2024-01-16T09:01:29;-0.70;99.90
16966;DHT22;8599;47.852;12.070;2024-01-16T09:03:56;-0.60;99.90
16966;DHT22;8599;47.852;12.070;2024-01-16T09:06:22;-0.50;99.90
16966;DHT22;8599;47.852;12.070;2024-01-16T09:08:49;-0.50;99.90
16966;DHT22;8599;47.852;12.070;2024-01-16T09:11:16;-0.50;99.90
16966;DHT22;8599;47.852;12.070;2024-01-16T09:13:43;-0.40;99.90
16966;DHT22;8599;47.852;12.070;2024-01-16T09:16:11;-0.30;99.90
16966;DHT22;8599;47.852;12.070;2024-01-16T09:18:38;-0.30;99.90
16966;DHT22;8599;47.852;12.070;2024-01-16T09:21:05;-0.20;99.90
16966;DHT22;8599;47.852;12.070;2024-01-16T09:23:32;-0.20;99.90
16966;DHT22;8599;47.852;12.070;2024-01-16T09:25:59;-0.10;99.90
16966;DHT22;8599;47.852;12.070;2024-01-16T09:28:25;-0.10;99.90
16966;DHT22;8599;47.852;12.070;2024-01-16T09:30:54;-0.10;99.90
16966;DHT22;8599;47.852;12.070;2024-01-16T09:33:23;0.00;99.90
16966;DHT22;8599;47.852;12.070;2024-01-16T09:35:50;0.00;99.90
16966;DHT22;8599;47.852;12.070;2024-01-16T09:38:17;0.00;99.90
16966;DHT22;8599;47.852;12.070;2024-01-16T09:40:44;0.00;99.90
16966;DHT22;8599;47.852;12.070;2024-01-16T09:43:12;0.00;99.90
16966;DHT22;8599;47.852;12.070;2024-01-16T09:45:39;0.00;99.90
16966;DHT22;8599;47.852;12.070;2024-01-16T09:48:07;0.00;99.90
16966;DHT22;8599;47.852;12.070;2024-01-16T09:50:36;0.10;99.90
16966;DHT22;8599;47.852;12.070;2024-01-16T09:53:03;0.10;99.90
16966;DHT22;8599;47.852;12.070;2024-01-16T09:55:30;0.20;99.90
16966;DHT22;8599;47.852;12.070;2024-01-16T09:57:57;0.20;99.90
16966;DHT22;8599;47.852;12.070;2024-01-16T10:00:24;0.30;99.90
16966;DHT22;8599;47.852;12.070;2024-01-16T10:02:53;0.30;99.90
16966;DHT22;8599;47.852;12.070;2024-01-16T10:05:24;0.30;99.90
16966;DHT22;8599;47.852;12.070;2024-01-16T10:07:52;0.40;99.90
16966;DHT22;8599;47.852;12.070;2024-01-16T10:10:19;0.40;99.90
16966;DHT22;8599;47.852;12.070;2024-01-16T10:12:49;0.40;99.90
16966;DHT22;8599;47.852;12.070;2024-01-16T10:15:16;0.50;99.90
16966;DHT22;8599;47.852;12.070;2024-01-16T10:17:43;0.70;99.90
16966;DHT22;8599;47.852;12.070;2024-01-16T10:20:11;0.70;99.90
16966;DHT22;8599;47.852;12.070;2024-01-16T10:22:39;0.80;99.90
16966;DHT22;8599;47.852;12.070;2024-01-16T10:25:10;0.80;99.90
16966;DHT22;8599;47.852;12.070;2024-01-16T10:27:38;0.90;99.90
16966;DHT22;8599;47.852;12.070;2024-01-16T10:30:06;0.90;99.90
16966;DHT22;8599;47.852;12.070;2024-01-16T10:32:35;0.90;99.90
16966;DHT22;8599;47.852;12.070;2024-01-16T10:35:07;0.90;99.90
16966;DHT22;8599;47.852;12.070;2024-01-16T10:37:43;0.90;99.90
16966;DHT22;8599;47.852;12.070;2024-01-16T10:40:15;1.00;99.90
16966;DHT22;8599;47.852;12.070;2024-01-16T10:42:42;1.00;99.90
16966;DHT22;8599;47.852;12.070;2024-01-16T10:45:17;1.00;99.90
16966;DHT22;8599;47.852;12.070;2024-01-16T10:47:45;1.00;99.90
16966;DHT22;8599;47.852;12.070;2024-01-16T10:50:12;1.00;99.90
16966;DHT22;8599;47.852;12.070;2024-01-16T10:52:45;1.10;99.90
16966;DHT22;8599;47.852;12.070;2024-01-16T10:55:19;1.10;99.90
16966;DHT22;8599;47.852;12.070;2024-01-16T10:57:48;1.20;99.90
16966;DHT22;8599;47.852;12.070;2024-01-16T11:00:18;1.20;99.90
16966;DHT22;8599;47.852;12.070;2024-01-16T11:02:49;1.30;99.90
16966;DHT22;8599;47.852;12.070;2024-01-16T11:05:17;1.20;99.90
16966;DHT22;8599;47.852;12.070;2024-01-16T11:07:44;1.20;99.90
16966;DHT22;8599;47.852;12.070;2024-01-16T11:10:12;1.10;99.90
16966;DHT22;8599;47.852;12.070;2024-01-16T11:12:40;1.20;99.90
16966;DHT22;8599;47.852;12.070;2024-01-16T11:15:10;1.20;99.90
16966;DHT22;8599;47.852;12.070;2024-01-16T11:17:38;1.30;99.90
16966;DHT22;8599;47.852;12.070;2024-01-16T11:20:08;1.40;99.90
16966;DHT22;8599;47.852;12.070;2024-01-16T11:22:38;1.50;99.90
16966;DHT22;8599;47.852;12.070;2024-01-16T11:25:09;1.50;99.90
16966;DHT22;8599;47.852;12.070;2024-01-16T11:27:36;1.50;99.90
16966;DHT22;8599;47.852;12.070;2024-01-16T11:30:08;1.50;99.90
16966;DHT22;8599;47.852;12.070;2024-01-16T11:32:38;1.50;99.90
16966;DHT22;8599;47.852;12.070;2024-01-16T11:35:06;1.50;99.90
16966;DHT22;8599;47.852;12.070;2024-01-16T11:37:34;1.50;99.90
16966;DHT22;8599;47.852;12.070;2024-01-16T11:40:25;1.50;99.90
16966;DHT22;8599;47.852;12.070;2024-01-16T11:42:53;1.50;99.90
16966;DHT22;8599;47.852;12.070;2024-01-16T11:45:49;1.40;99.90
16966;DHT22;8599;47.852;12.070;2024-01-16T11:48:19;1.50;99.90
16966;DHT22;8599;47.852;12.070;2024-01-16T11:50:46;1.60;99.90
16966;DHT22;8599;47.852;12.070;2024-01-16T11:53:35;1.70;99.90
16966;DHT22;8599;47.852;12.070;2024-01-16T11:59:35;1.90;99.90
16966;DHT22;8599;47.852;12.070;2024-01-16T12:02:12;1.90;99.90
16966;DHT22;8599;47.852;12.070;2024-01-16T12:04:41;1.90;99.90
16966;DHT22;8599;47.852;12.070;2024-01-16T12:07:08;1.90;99.90
16966;DHT22;8599;47.852;12.070;2024-01-16T12:09:36;1.80;99.90
16966;DHT22;8599;47.852;12.070;2024-01-16T12:12:03;1.70;99.90
16966;DHT22;8599;47.852;12.070;2024-01-16T12:14:31;1.80;99.90
16966;DHT22;8599;47.852;12.070;2024-01-16T12:17:10;1.70;99.90
16966;DHT22;8599;47.852;12.070;2024-01-16T12:19:37;1.60;99.90
16966;DHT22;8599;47.852;12.070;2024-01-16T12:22:08;1.60;99.90
16966;DHT22;8599;47.852;12.070;2024-01-16T12:24:35;1.80;99.90
16966;DHT22;8599;47.852;12.070;2024-01-16T12:27:03;1.90;99.90
16966;DHT22;8599;47.852;12.070;2024-01-16T12:29:30;2.00;99.90
16966;DHT22;8599;47.852;12.070;2024-01-16T12:32:05;2.00;99.90
16966;DHT22;8599;47.852;12.070;2024-01-16T12:34:34;2.10;99.90
16966;DHT22;8599;47.852;12.070;2024-01-16T12:37:05;2.10;99.90
16966;DHT22;8599;47.852;12.070;2024-01-16T12:39:32;2.10;99.90
16966;DHT22;8599;47.852;12.070;2024-01-16T12:42:01;2.10;99.90
16966;DHT22;8599;47.852;12.070;2024-01-16T12:44:28;2.10;99.90
16966;DHT22;8599;47.852;12.070;2024-01-16T12:46:56;2.10;99.90
16966;DHT22;8599;47.852;12.070;2024-01-16T12:49:23;2.10;99.90
16966;DHT22;8599;47.852;12.070;2024-01-16T12:51:51;2.00;99.90
16966;DHT22;8599;47.852;12.070;2024-01-16T12:54:38;2.10;99.90
16966;DHT22;8599;47.852;12.070;2024-01-16T12:57:05;2.00;99.90
16966;DHT22;8599;47.852;12.070;2024-01-16T12:59:32;2.10;99.90
16966;DHT22;8599;47.852;12.070;2024-01-16T13:01:59;1.90;99.90
16966;DHT22;8599;47.852;12.070;2024-01-16T13:04:26;1.80;99.90
16966;DHT22;8599;47.852;12.070;2024-01-16T13:07:02;1.70;99.90
16966;DHT22;8599;47.852;12.070;2024-01-16T13:09:29;1.60;99.90
16966;DHT22;8599;47.852;12.070;2024-01-16T13:11:57;1.60;99.90
16966;DHT22;8599;47.852;12.070;2024-01-16T13:14:25;1.60;99.90
16966;DHT22;8599;47.852;12.070;2024-01-16T13:16:53;1.50;99.90
16966;DHT22;8599;47.852;12.070;2024-01-16T13:19:21;1.50;99.90
16966;DHT22;8599;47.852;12.070;2024-01-16T13:21:49;1.30;99.90
16966;DHT22;8599;47.852;12.070;2024-01-16T13:24:17;1.20;99.90
16966;DHT22;8599;47.852;12.070;2024-01-16T13:26:47;1.20;99.90
16966;DHT22;8599;47.852;12.070;2024-01-16T13:29:14;1.20;99.90
16966;DHT22;8599;47.852;12.070;2024-01-16T13:31:41;1.20;99.90
16966;DHT22;8599;47.852;12.070;2024-01-16T13:34:09;1.20;99.90
16966;DHT22;8599;47.852;12.070;2024-01-16T13:36:35;1.10;99.90
16966;DHT22;8599;47.852;12.070;2024-01-16T13:39:02;1.20;99.90
16966;DHT22;8599;47.852;12.070;2024-01-16T13:41:36;1.40;99.90
16966;DHT22;8599;47.852;12.070;2024-01-16T13:44:02;1.40;99.90
16966;DHT22;8599;47.852;12.070;2024-01-16T13:46:30;1.50;99.90
16966;DHT22;8599;47.852;12.070;2024-01-16T13:48:57;1.40;99.90
16966;DHT22;8599;47.852;12.070;2024-01-16T13:51:24;1.50;99.90
16966;DHT22;8599;47.852;12.070;2024-01-16T13:53:51;1.40;99.90
16966;DHT22;8599;47.852;12.070;2024-01-16T13:56:17;1.40;99.90
16966;DHT22;8599;47.852;12.070;2024-01-16T13:58:45;1.30;99.90
16966;DHT22;8599;47.852;12.070;2024-01-16T14:01:12;1.30;99.90
16966;DHT22;8599;47.852;12.070;2024-01-16T14:03:39;1.30;99.90
16966;DHT22;8599;47.852;12.070;2024-01-16T14:06:08;1.30;99.90
16966;DHT22;8599;47.852;12.070;2024-01-16T14:08:35;1.30;99.90
16966;DHT22;8599;47.852;12.070;2024-01-16T14:11:03;1.30;99.90
16966;DHT22;8599;47.852;12.070;2024-01-16T14:13:30;1.30;99.90
16966;DHT22;8599;47.852;12.070;2024-01-16T14:15:58;1.20;99.90
16966;DHT22;8599;47.852;12.070;2024-01-16T14:18:25;1.20;99.90
16966;DHT22;8599;47.852;12.070;2024-01-16T14:20:51;1.20;99.90
16966;DHT22;8599;47.852;12.070;2024-01-16T14:23:19;1.20;99.90
16966;DHT22;8599;47.852;12.070;2024-01-16T14:25:46;1.10;99.90
16966;DHT22;8599;47.852;12.070;2024-01-16T14:28:13;1.10;99.90
16966;DHT22;8599;47.852;12.070;2024-01-16T14:30:40;1.20;99.90
16966;DHT22;8599;47.852;12.070;2024-01-16T14:33:09;1.20;99.90
16966;DHT22;8599;47.852;12.070;2024-01-16T14:35:38;1.10;99.90
16966;DHT22;8599;47.852;12.070;2024-01-16T14:38:05;1.20;99.90
16966;DHT22;8599;47.852;12.070;2024-01-16T14:40:31;1.20;99.90
16966;DHT22;8599;47.852;12.070;2024-01-16T14:42:58;1.10;99.90
16966;DHT22;8599;47.852;12.070;2024-01-16T14:45:30;1.10;99.90
16966;DHT22;8599;47.852;12.070;2024-01-16T14:47:57;1.10;99.90
16966;DHT22;8599;47.852;12.070;2024-01-16T14:50:26;1.10;99.90
16966;DHT22;8599;47.852;12.070;2024-01-16T14:52:52;1.10;99.90
16966;DHT22;8599;47.852;12.070;2024-01-16T14:55:20;1.20;99.90
16966;DHT22;8599;47.852;12.070;2024-01-16T14:57:48;1.30;99.90
16966;DHT22;8599;47.852;12.070;2024-01-16T15:00:19;1.50;99.90
16966;DHT22;8599;47.852;12.070;2024-01-16T15:02:49;1.50;99.90
16966;DHT22;8599;47.852;12.070;2024-01-16T15:05:16;1.40;99.90
16966;DHT22;8599;47.852;12.070;2024-01-16T15:07:45;1.30;99.90
16966;DHT22;8599;47.852;12.070;2024-01-16T15:10:13;1.20;99.90
16966;DHT22;8599;47.852;12.070;2024-01-16T15:12:42;1.20;99.90
16966;DHT22;8599;47.852;12.070;2024-01-16T15:15:10;1.20;99.90
16966;DHT22;8599;47.852;12.070;2024-01-16T15:17:38;1.20;99.90
16966;DHT22;8599;47.852;12.070;2024-01-16T15:20:06;1.20;99.90
16966;DHT22;8599;47.852;12.070;2024-01-16T15:22:34;1.20;99.90
16966;DHT22;8599;47.852;12.070;2024-01-16T15:25:05;1.10;99.90
16966;DHT22;8599;47.852;12.070;2024-01-16T15:27:32;1.10;99.90
16966;DHT22;8599;47.852;12.070;2024-01-16T15:29:59;1.10;99.90
16966;DHT22;8599;47.852;12.070;2024-01-16T15:32:26;1.00;99.90
16966;DHT22;8599;47.852;12.070;2024-01-16T15:34:53;0.90;99.90
16966;DHT22;8599;47.852;12.070;2024-01-16T15:37:20;0.90;99.90
16966;DHT22;8599;47.852;12.070;2024-01-16T15:39:47;0.90;99.90
16966;DHT22;8599;47.852;12.070;2024-01-16T15:42:15;0.80;99.90
16966;DHT22;8599;47.852;12.070;2024-01-16T15:44:43;0.80;99.90